createdAt,value
2018-06-18T00:00:53.561Z,14.80
2018-06-18T00:01:59.078Z,14.80
2018-06-18T00:04:10.152Z,14.90
2018-06-18T00:05:15.753Z,14.90
2018-06-18T00:06:21.184Z,14.90
2018-06-18T00:07:26.630Z,14.90
2018-06-18T00:08:32.063Z,14.80
2018-06-18T00:09:37.493Z,14.80
2018-06-18T00:10:43.072Z,14.80
2018-06-18T00:11:48.497Z,14.80
2018-06-18T00:12:53.921Z,14.80
2018-06-18T00:13:59.335Z,14.80
2018-06-18T00:15:04.836Z,14.70
2018-06-18T00:16:10.262Z,14.70
2018-06-18T00:17:15.741Z,14.70
2018-06-18T00:18:21.168Z,14.70
2018-06-18T00:19:26.712Z,14.70
2018-06-18T00:20:32.182Z,14.60
2018-06-18T00:21:37.755Z,14.60
2018-06-18T00:22:43.174Z,14.60
2018-06-18T00:23:48.575Z,14.60
2018-06-18T00:24:54.219Z,14.70
2018-06-18T00:25:59.618Z,14.70
2018-06-18T00:27:05.049Z,14.70
2018-06-18T00:28:10.585Z,14.70
2018-06-18T00:29:15.997Z,14.70
2018-06-18T00:30:21.453Z,14.70
2018-06-18T00:31:26.959Z,14.70
2018-06-18T00:32:32.534Z,14.60
2018-06-18T00:33:38.058Z,14.60
2018-06-18T00:34:43.969Z,14.60
2018-06-18T00:35:49.401Z,14.60
2018-06-18T00:36:54.830Z,14.60
2018-06-18T00:38:00.261Z,14.50
2018-06-18T00:39:08.573Z,14.50
2018-06-18T00:40:14.032Z,14.50
2018-06-18T00:41:19.737Z,14.40
2018-06-18T00:42:25.284Z,14.50
2018-06-18T00:43:30.757Z,14.40
2018-06-18T00:44:36.224Z,14.40
2018-06-18T00:45:41.715Z,14.30
2018-06-18T00:46:47.212Z,14.30
2018-06-18T00:47:52.618Z,14.30
2018-06-18T00:48:58.065Z,14.30
2018-06-18T00:50:03.578Z,14.20
2018-06-18T00:51:09.054Z,14.30
2018-06-18T00:52:14.449Z,14.20
2018-06-18T00:53:19.891Z,14.20
2018-06-18T00:54:25.782Z,14.20
2018-06-18T00:55:48.277Z,14.10
2018-06-18T00:56:53.708Z,14.10
2018-06-18T00:57:59.146Z,14.10
2018-06-18T00:59:04.589Z,14.10
2018-06-18T01:00:10.057Z,14.00
2018-06-18T01:01:15.578Z,14.00
2018-06-18T01:02:20.962Z,14.00
2018-06-18T01:03:26.768Z,14.00
2018-06-18T01:04:32.201Z,14.00
2018-06-18T01:05:37.749Z,14.00
2018-06-18T01:06:43.205Z,14.00
2018-06-18T01:07:48.641Z,14.00
2018-06-18T01:08:54.068Z,14.00
2018-06-18T01:09:59.481Z,13.90
2018-06-18T01:11:04.941Z,13.90
2018-06-18T01:12:10.423Z,14.00
2018-06-18T01:13:15.836Z,13.90
2018-06-18T01:14:23.267Z,13.90
2018-06-18T01:15:28.716Z,13.90
2018-06-18T01:17:39.242Z,13.90
2018-06-18T01:18:44.649Z,13.90
2018-06-18T01:19:50.105Z,13.90
2018-06-18T01:20:55.684Z,13.80
2018-06-18T01:22:01.098Z,13.80
2018-06-18T01:25:16.806Z,13.90
2018-06-18T01:26:22.237Z,13.90
2018-06-18T01:27:28.004Z,13.80
2018-06-18T01:28:33.437Z,13.80
2018-06-18T01:29:39.154Z,13.80
2018-06-18T01:30:44.726Z,13.90
2018-06-18T01:31:50.146Z,13.80
2018-06-18T01:32:55.554Z,13.80
2018-06-18T01:34:03.326Z,13.80
2018-06-18T01:36:14.547Z,13.80
2018-06-18T01:37:20.022Z,13.70
2018-06-18T01:38:25.449Z,13.70
2018-06-18T01:39:30.857Z,13.70
2018-06-18T01:41:41.449Z,13.70
2018-06-18T01:42:46.869Z,13.70
2018-06-18T01:43:52.596Z,13.70
2018-06-18T01:46:03.619Z,13.70
2018-06-18T01:47:09.029Z,13.70
2018-06-18T01:48:14.442Z,13.80
2018-06-18T01:49:19.863Z,13.80
2018-06-18T01:50:25.329Z,13.80
2018-06-18T01:51:30.733Z,13.90
2018-06-18T01:52:36.165Z,13.90
2018-06-18T01:53:41.630Z,14.00
2018-06-18T01:54:47.039Z,14.00
2018-06-18T01:55:52.502Z,14.00
2018-06-18T01:56:57.932Z,14.00
2018-06-18T01:58:03.506Z,14.00
2018-06-18T01:59:08.937Z,14.10
2018-06-18T02:00:14.410Z,14.10
2018-06-18T02:01:19.902Z,14.10
2018-06-18T02:02:25.320Z,14.10
2018-06-18T02:03:30.748Z,14.10
2018-06-18T02:04:36.216Z,14.20
2018-06-18T02:05:41.687Z,14.20
2018-06-18T02:07:52.226Z,14.20
2018-06-18T02:08:57.777Z,14.20
2018-06-18T02:10:03.278Z,14.30
2018-06-18T02:11:08.727Z,14.30
2018-06-18T02:12:14.150Z,14.30
2018-06-18T02:13:19.774Z,14.30
2018-06-18T02:14:25.235Z,14.30
2018-06-18T02:15:30.672Z,14.30
2018-06-18T02:16:36.098Z,14.30
2018-06-18T02:17:41.529Z,14.40
2018-06-18T02:18:47.020Z,14.40
2018-06-18T02:19:52.491Z,14.40
2018-06-18T02:20:58.018Z,14.40
2018-06-18T02:22:03.420Z,14.40
2018-06-18T02:23:08.856Z,14.40
2018-06-18T02:24:14.289Z,14.40
2018-06-18T02:25:19.754Z,14.40
2018-06-18T02:26:25.171Z,14.40
2018-06-18T02:27:35.699Z,14.40
2018-06-18T02:28:46.445Z,14.40
2018-06-18T02:29:57.255Z,14.40
2018-06-18T02:31:07.858Z,14.40
2018-06-18T02:32:18.567Z,14.40
2018-06-18T02:33:29.179Z,14.30
2018-06-18T02:34:40.034Z,14.40
2018-06-18T02:35:50.599Z,14.40
2018-06-18T02:37:01.451Z,14.40
2018-06-18T02:39:09.974Z,14.50
2018-06-18T02:40:20.593Z,14.40
2018-06-18T02:41:26.452Z,14.50
2018-06-18T02:42:31.885Z,14.50
2018-06-18T02:43:37.331Z,14.50
2018-06-18T02:44:42.764Z,14.50
2018-06-18T02:45:48.393Z,14.50
2018-06-18T02:46:53.796Z,14.50
2018-06-18T02:47:59.221Z,14.50
2018-06-18T02:49:04.715Z,14.50
2018-06-18T02:50:10.150Z,14.50
2018-06-18T02:51:16.094Z,14.60
2018-06-18T02:52:21.530Z,14.60
2018-06-18T02:53:27.023Z,14.60
2018-06-18T02:55:38.538Z,14.60
2018-06-18T02:56:57.564Z,14.60
2018-06-18T02:58:03.239Z,14.60
2018-06-18T02:59:08.692Z,14.70
2018-06-18T03:00:14.130Z,14.70
2018-06-18T03:01:19.673Z,14.70
2018-06-18T03:02:25.174Z,14.70
2018-06-18T03:03:30.978Z,14.70
2018-06-18T03:04:36.413Z,14.70
2018-06-18T03:05:41.823Z,14.70
2018-06-18T03:06:47.278Z,14.70
2018-06-18T03:07:53.045Z,14.70
2018-06-18T03:08:58.696Z,14.70
2018-06-18T03:10:04.249Z,14.70
2018-06-18T03:11:09.659Z,14.70
2018-06-18T03:12:15.077Z,14.70
2018-06-18T03:13:20.473Z,14.70
2018-06-18T03:14:25.955Z,14.70
2018-06-18T03:15:33.614Z,14.70
2018-06-18T03:16:39.486Z,14.70
2018-06-18T03:17:44.906Z,14.70
2018-06-18T03:18:55.511Z,14.70
2018-06-18T03:20:06.270Z,14.70
2018-06-18T03:21:17.009Z,14.70
2018-06-18T03:23:38.203Z,14.70
2018-06-18T03:24:48.968Z,14.70
2018-06-18T03:25:59.660Z,14.70
2018-06-18T03:27:10.366Z,14.70
2018-06-18T03:28:20.904Z,14.70
2018-06-18T03:29:29.245Z,14.70
2018-06-18T03:30:34.689Z,14.70
2018-06-18T03:31:40.149Z,14.80
2018-06-18T03:32:45.801Z,14.80
2018-06-18T03:33:51.214Z,14.80
2018-06-18T03:34:56.783Z,14.80
2018-06-18T03:36:02.184Z,14.80
2018-06-18T03:37:10.017Z,14.70
2018-06-18T03:38:15.478Z,14.70
2018-06-18T03:39:20.881Z,14.70
2018-06-18T03:40:26.350Z,14.70
2018-06-18T03:41:31.806Z,14.70
2018-06-18T03:42:37.270Z,14.70
2018-06-18T03:43:49.543Z,14.70
2018-06-18T03:45:05.589Z,14.80
2018-06-18T03:46:11.015Z,14.80
2018-06-18T03:47:29.058Z,14.80
2018-06-18T03:48:34.461Z,14.80
2018-06-18T03:49:40.338Z,14.90
2018-06-18T03:50:45.765Z,14.90
2018-06-18T03:51:51.268Z,14.90
2018-06-18T03:52:56.750Z,14.90
2018-06-18T03:54:02.237Z,14.90
2018-06-18T03:55:16.729Z,14.90
2018-06-18T03:56:22.226Z,14.90
2018-06-18T03:57:27.702Z,14.90
2018-06-18T03:59:49.410Z,15.00
2018-06-18T04:01:16.832Z,15.00
2018-06-18T04:02:58.197Z,15.00
2018-06-18T04:04:11.471Z,15.00
2018-06-18T04:05:21.968Z,15.00
2018-06-18T04:06:32.638Z,15.10
2018-06-18T04:07:43.334Z,15.10
2018-06-18T04:08:52.955Z,15.10
2018-06-18T04:10:03.646Z,15.10
2018-06-18T04:11:14.393Z,15.10
2018-06-18T04:12:19.860Z,15.20
2018-06-18T04:13:25.291Z,15.20
2018-06-18T04:14:30.738Z,15.20
2018-06-18T04:15:36.370Z,15.20
2018-06-18T04:16:41.881Z,15.20
2018-06-18T04:17:47.742Z,15.20
2018-06-18T04:18:53.657Z,15.20
2018-06-18T04:19:59.070Z,15.20
2018-06-18T04:21:04.490Z,15.10
2018-06-18T04:22:09.923Z,15.10
2018-06-18T04:23:15.349Z,15.00
2018-06-18T04:24:20.778Z,15.00
2018-06-18T04:25:26.225Z,15.00
2018-06-18T04:26:31.620Z,15.00
2018-06-18T04:27:37.026Z,14.90
2018-06-18T04:28:42.438Z,14.90
2018-06-18T04:29:47.841Z,14.80
2018-06-18T04:30:53.693Z,14.80
2018-06-18T04:31:59.078Z,14.70
2018-06-18T04:33:05.138Z,14.70
2018-06-18T04:34:28.187Z,14.70
2018-06-18T04:35:33.628Z,14.70
2018-06-18T04:36:39.085Z,14.70
2018-06-18T04:37:44.712Z,14.70
2018-06-18T04:38:50.216Z,14.70
2018-06-18T04:39:55.699Z,14.70
2018-06-18T04:41:01.085Z,14.70
2018-06-18T04:42:11.667Z,14.70
2018-06-18T04:43:22.158Z,14.70
2018-06-18T04:44:32.889Z,14.70
2018-06-18T04:46:45.352Z,14.60
2018-06-18T04:47:55.864Z,14.60
2018-06-18T04:49:06.567Z,14.60
2018-06-18T04:50:17.149Z,14.60
2018-06-18T04:51:23.614Z,14.60
2018-06-18T04:52:29.134Z,14.60
2018-06-18T04:53:34.649Z,14.70
2018-06-18T04:54:40.057Z,14.60
2018-06-18T04:55:45.480Z,14.70
2018-06-18T04:56:50.913Z,14.70
2018-06-18T04:57:56.371Z,14.60
2018-06-18T04:59:01.767Z,14.70
2018-06-18T05:00:57.207Z,14.60
2018-06-18T05:02:04.712Z,14.60
2018-06-18T05:03:10.403Z,14.60
2018-06-18T05:04:15.967Z,14.70
2018-06-18T05:05:21.390Z,14.70
2018-06-18T05:06:29.578Z,14.70
2018-06-18T05:07:35.041Z,14.70
2018-06-18T05:09:00.573Z,14.70
2018-06-18T05:10:12.889Z,14.70
2018-06-18T05:11:18.385Z,14.70
2018-06-18T05:12:23.932Z,14.70
2018-06-18T05:13:29.405Z,14.70
2018-06-18T05:14:34.816Z,14.80
2018-06-18T05:15:41.811Z,14.80
2018-06-18T05:16:47.940Z,14.80
2018-06-18T05:17:53.414Z,14.80
2018-06-18T05:18:58.862Z,14.80
2018-06-18T05:20:04.393Z,14.80
2018-06-18T05:21:09.832Z,14.90
2018-06-18T05:22:15.429Z,14.80
2018-06-18T05:23:20.855Z,14.80
2018-06-18T05:24:26.453Z,14.80
2018-06-18T05:25:32.611Z,14.70
2018-06-18T05:26:42.608Z,14.70
2018-06-18T05:27:48.065Z,14.70
2018-06-18T05:28:54.208Z,14.60
2018-06-18T05:30:08.754Z,14.60
2018-06-18T05:31:14.189Z,14.60
2018-06-18T05:32:19.612Z,14.60
2018-06-18T05:33:25.193Z,14.60
2018-06-18T05:34:32.642Z,14.70
2018-06-18T05:35:38.750Z,14.60
2018-06-18T05:36:44.203Z,14.70
2018-06-18T05:38:00.763Z,14.70
2018-06-18T05:39:09.428Z,14.70
2018-06-18T05:40:14.921Z,14.80
2018-06-18T05:41:20.367Z,14.70
2018-06-18T05:42:26.771Z,14.70
2018-06-18T05:43:32.697Z,14.80
2018-06-18T05:44:38.164Z,14.80
2018-06-18T05:45:43.774Z,14.90
2018-06-18T05:46:49.182Z,14.90
2018-06-18T05:47:54.650Z,14.80
2018-06-18T05:49:00.113Z,14.80
2018-06-18T05:50:05.600Z,14.80
2018-06-18T05:51:11.005Z,14.80
2018-06-18T05:52:16.456Z,14.70
2018-06-18T05:53:21.869Z,14.70
2018-06-18T05:54:27.302Z,14.70
2018-06-18T05:55:32.705Z,14.70
2018-06-18T05:56:38.152Z,14.70
2018-06-18T05:57:43.625Z,14.70
2018-06-18T05:58:49.055Z,14.70
2018-06-18T05:59:54.513Z,14.70
2018-06-18T06:00:59.919Z,14.80
2018-06-18T06:02:05.429Z,14.80
2018-06-18T06:03:11.173Z,14.70
2018-06-18T06:04:16.621Z,14.70
2018-06-18T06:05:22.065Z,14.70
2018-06-18T06:06:27.471Z,14.70
2018-06-18T06:07:32.924Z,14.70
2018-06-18T06:08:38.338Z,14.70
2018-06-18T06:09:43.773Z,14.80
2018-06-18T06:10:49.195Z,14.80
2018-06-18T06:11:54.733Z,14.80
2018-06-18T06:13:00.673Z,14.80
2018-06-18T06:14:06.274Z,14.90
2018-06-18T06:15:11.734Z,14.90
2018-06-18T06:16:17.156Z,14.90
2018-06-18T06:17:22.751Z,15.00
2018-06-18T06:18:28.158Z,14.90
2018-06-18T06:19:33.581Z,14.90
2018-06-18T06:20:52.287Z,14.90
2018-06-18T06:21:57.844Z,14.80
2018-06-18T06:23:03.274Z,14.80
2018-06-18T06:24:08.829Z,14.80
2018-06-18T06:25:14.231Z,14.80
2018-06-18T06:26:19.647Z,14.90
2018-06-18T06:27:25.117Z,14.80
2018-06-18T06:28:30.521Z,14.90
2018-06-18T06:29:36.037Z,14.90
2018-06-18T06:30:41.445Z,15.00
2018-06-18T06:31:46.861Z,14.90
2018-06-18T06:32:52.289Z,14.90
2018-06-18T06:33:57.703Z,14.90
2018-06-18T06:35:16.460Z,15.00
2018-06-18T06:36:25.580Z,15.00
2018-06-18T06:38:36.003Z,15.10
2018-06-18T06:39:41.406Z,15.10
2018-06-18T06:40:46.863Z,15.20
2018-06-18T06:41:58.920Z,15.20
2018-06-18T06:44:09.362Z,15.30
2018-06-18T06:45:14.814Z,15.30
2018-06-18T06:46:20.215Z,15.30
2018-06-18T06:47:25.770Z,15.40
2018-06-18T06:48:31.194Z,15.50
2018-06-18T06:49:37.177Z,15.50
2018-06-18T06:50:42.706Z,15.50
2018-06-18T06:51:48.181Z,15.50
2018-06-18T06:52:53.609Z,15.50
2018-06-18T06:53:59.142Z,15.50
2018-06-18T06:55:04.766Z,15.60
2018-06-18T06:56:10.178Z,15.60
2018-06-18T06:57:15.789Z,15.60
2018-06-18T06:58:21.322Z,15.60
2018-06-18T06:59:26.746Z,15.70
2018-06-18T07:00:32.218Z,15.70
2018-06-18T07:01:37.621Z,15.80
2018-06-18T07:02:43.251Z,15.80
2018-06-18T07:03:48.667Z,15.70
2018-06-18T07:04:54.124Z,15.70
2018-06-18T07:05:59.562Z,15.70
2018-06-18T07:07:05.232Z,15.60
2018-06-18T07:08:10.679Z,15.60
2018-06-18T07:09:16.124Z,15.60
2018-06-18T07:10:21.534Z,15.60
2018-06-18T07:11:26.961Z,15.50
2018-06-18T07:12:32.610Z,15.60
2018-06-18T07:13:38.099Z,15.60
2018-06-18T07:14:43.507Z,15.60
2018-06-18T07:15:48.906Z,15.70
2018-06-18T07:16:54.321Z,15.80
2018-06-18T07:17:59.822Z,15.90
2018-06-18T07:19:05.298Z,15.90
2018-06-18T07:20:10.726Z,16.00
2018-06-18T07:21:16.176Z,16.10
2018-06-18T07:22:21.596Z,16.20
2018-06-18T07:23:27.016Z,16.20
2018-06-18T07:24:32.419Z,16.20
2018-06-18T07:25:38.089Z,16.30
2018-06-18T07:26:43.498Z,16.40
2018-06-18T07:27:48.894Z,16.50
2018-06-18T07:28:54.510Z,16.60
2018-06-18T07:29:59.930Z,16.70
2018-06-18T07:31:05.513Z,16.80
2018-06-18T07:32:10.947Z,16.90
2018-06-18T07:33:16.361Z,17.00
2018-06-18T07:34:21.765Z,17.00
2018-06-18T07:35:27.319Z,17.10
2018-06-18T07:36:32.776Z,17.20
2018-06-18T07:37:38.200Z,17.30
2018-06-18T07:38:43.642Z,17.40
2018-06-18T07:39:49.146Z,17.50
2018-06-18T07:40:54.713Z,17.60
2018-06-18T07:42:00.152Z,17.80
2018-06-18T07:43:05.620Z,17.90
2018-06-18T07:44:11.057Z,17.80
2018-06-18T07:45:16.472Z,18.00
2018-06-18T07:46:21.899Z,18.10
2018-06-18T07:47:27.431Z,18.30
2018-06-18T07:48:32.837Z,18.20
2018-06-18T07:49:38.487Z,18.30
2018-06-18T07:50:43.869Z,18.50
2018-06-18T07:51:49.479Z,18.70
2018-06-18T07:52:54.780Z,18.80
2018-06-18T07:54:00.166Z,18.90
2018-06-18T07:55:06.162Z,19.00
2018-06-18T07:56:11.605Z,19.20
2018-06-18T07:57:17.058Z,19.40
2018-06-18T07:58:22.796Z,19.50
2018-06-18T07:59:28.205Z,19.60
2018-06-18T08:00:33.613Z,19.60
2018-06-18T08:01:39.080Z,19.50
2018-06-18T08:02:44.522Z,19.50
2018-06-18T08:03:49.996Z,19.50
2018-06-18T08:04:55.422Z,19.60
2018-06-18T08:06:00.926Z,19.80
2018-06-18T08:07:06.582Z,20.20
2018-06-18T08:08:12.174Z,20.50
2018-06-18T08:09:17.799Z,20.70
2018-06-18T08:10:23.215Z,20.80
2018-06-18T08:11:28.720Z,21.10
2018-06-18T08:12:34.162Z,21.30
2018-06-18T08:13:39.676Z,21.30
2018-06-18T08:14:45.102Z,21.50
2018-06-18T08:15:50.549Z,21.60
2018-06-18T08:16:55.981Z,21.30
2018-06-18T08:18:01.370Z,21.00
2018-06-18T08:19:07.030Z,20.90
2018-06-18T08:20:15.426Z,20.70
2018-06-18T08:22:26.417Z,20.30
2018-06-18T08:23:31.885Z,20.10
2018-06-18T08:24:37.286Z,19.90
2018-06-18T08:25:42.702Z,19.80
2018-06-18T08:26:48.205Z,19.60
2018-06-18T08:27:53.621Z,19.60
2018-06-18T08:28:59.065Z,19.40
2018-06-18T08:30:04.603Z,19.50
2018-06-18T08:32:15.126Z,19.60
2018-06-18T08:33:20.591Z,19.70
2018-06-18T08:34:26.231Z,19.80
2018-06-18T08:35:31.646Z,19.90
2018-06-18T08:36:37.059Z,20.00
2018-06-18T08:37:42.487Z,20.20
2018-06-18T08:38:48.092Z,20.40
2018-06-18T08:39:53.493Z,20.40
2018-06-18T08:40:58.930Z,20.50
2018-06-18T08:42:04.381Z,20.50
2018-06-18T08:43:09.882Z,20.40
2018-06-18T08:44:15.405Z,20.20
2018-06-18T08:45:21.013Z,20.20
2018-06-18T08:46:26.436Z,20.20
2018-06-18T08:47:31.878Z,20.10
2018-06-18T08:48:42.573Z,20.10
2018-06-18T08:49:53.155Z,20.10
2018-06-18T08:51:03.861Z,20.10
2018-06-18T08:52:14.372Z,20.20
2018-06-18T08:53:24.930Z,20.20
2018-06-18T08:54:35.697Z,20.20
2018-06-18T08:56:56.804Z,20.20
2018-06-18T08:58:07.543Z,20.30
2018-06-18T08:59:18.258Z,20.40
2018-06-18T09:00:28.853Z,20.40
2018-06-18T09:01:35.772Z,20.40
2018-06-18T09:02:46.574Z,20.40
2018-06-18T09:03:53.923Z,20.50
2018-06-18T09:05:00.323Z,20.60
2018-06-18T09:06:05.806Z,20.40
2018-06-18T09:07:11.346Z,20.40
2018-06-18T09:08:22.194Z,20.30
2018-06-18T09:09:27.898Z,20.30
2018-06-18T09:10:33.353Z,20.30
2018-06-18T09:11:38.865Z,20.30
2018-06-18T09:12:44.350Z,20.30
2018-06-18T09:15:13.800Z,20.30
2018-06-18T09:16:19.213Z,20.60
2018-06-18T09:17:24.713Z,20.70
2018-06-18T09:19:35.537Z,20.90
2018-06-18T09:20:40.972Z,21.00
2018-06-18T09:21:46.418Z,21.20
2018-06-18T09:22:51.838Z,21.20
2018-06-18T09:23:57.318Z,21.30
2018-06-18T09:25:02.746Z,21.30
2018-06-18T09:26:08.169Z,21.20
2018-06-18T09:27:14.801Z,21.30
2018-06-18T09:28:20.243Z,21.30
2018-06-18T09:29:25.686Z,21.40
2018-06-18T09:30:31.101Z,21.40
2018-06-18T09:31:36.549Z,21.50
2018-06-18T09:32:42.054Z,21.50
2018-06-18T09:33:47.441Z,21.50
2018-06-18T09:35:57.978Z,21.40
2018-06-18T09:37:03.421Z,21.40
2018-06-18T09:38:08.852Z,21.30
2018-06-18T09:39:14.257Z,21.30
2018-06-18T09:40:19.676Z,21.30
2018-06-18T09:41:25.102Z,21.30
2018-06-18T09:42:30.809Z,21.50
2018-06-18T09:43:36.222Z,21.60
2018-06-18T09:44:41.809Z,22.00
2018-06-18T09:45:47.510Z,22.00
2018-06-18T09:46:53.010Z,22.10
2018-06-18T09:47:59.617Z,22.30
2018-06-18T09:49:10.238Z,22.40
2018-06-18T09:50:20.777Z,22.50
2018-06-18T09:51:31.326Z,22.60
2018-06-18T09:52:42.027Z,22.50
2018-06-18T09:55:03.036Z,22.40
2018-06-18T09:56:13.229Z,22.30
2018-06-18T09:57:27.185Z,22.20
2018-06-18T09:58:37.806Z,22.10
2018-06-18T09:59:48.521Z,21.90
2018-06-18T10:01:18.001Z,21.80
2018-06-18T10:02:23.429Z,21.70
2018-06-18T10:03:28.910Z,21.80
2018-06-18T10:04:34.441Z,21.80
2018-06-18T10:05:40.504Z,21.80
2018-06-18T10:06:45.895Z,21.90
2018-06-18T10:07:51.310Z,22.10
2018-06-18T10:09:00.869Z,22.30
2018-06-18T10:10:06.558Z,22.60
2018-06-18T10:11:12.163Z,22.90
2018-06-18T10:12:17.549Z,23.10
2018-06-18T10:13:22.957Z,23.20
2018-06-18T10:14:28.518Z,23.30
2018-06-18T10:15:34.040Z,23.30
2018-06-18T10:16:39.438Z,23.30
2018-06-18T10:17:44.862Z,23.30
2018-06-18T10:18:50.418Z,23.30
2018-06-18T10:19:55.849Z,23.20
2018-06-18T10:21:01.301Z,23.20
2018-06-18T10:22:06.774Z,23.20
2018-06-18T10:23:12.196Z,23.20
2018-06-18T10:24:17.731Z,23.20
2018-06-18T10:25:23.146Z,23.20
2018-06-18T10:26:28.548Z,23.20
2018-06-18T10:27:33.944Z,23.20
2018-06-18T10:28:39.444Z,23.00
2018-06-18T10:29:45.161Z,23.00
2018-06-18T10:30:50.764Z,23.10
2018-06-18T10:31:56.234Z,23.10
2018-06-18T10:33:06.939Z,23.10
2018-06-18T10:34:17.621Z,23.00
2018-06-18T10:35:28.511Z,23.10
2018-06-18T10:36:39.230Z,23.00
2018-06-18T10:37:50.013Z,22.90
2018-06-18T10:39:00.614Z,22.80
2018-06-18T10:40:11.769Z,22.80
2018-06-18T10:41:22.437Z,22.80
2018-06-18T10:42:33.156Z,22.80
2018-06-18T10:43:39.077Z,22.90
2018-06-18T10:44:44.502Z,23.00
2018-06-18T10:45:50.554Z,23.10
2018-06-18T10:46:56.037Z,23.30
2018-06-18T10:48:01.494Z,23.50
2018-06-18T10:49:06.966Z,23.50
2018-06-18T10:50:13.453Z,23.60
2018-06-18T10:51:18.914Z,23.60
2018-06-18T10:52:24.369Z,23.60
2018-06-18T10:53:29.901Z,23.60
2018-06-18T10:54:35.357Z,23.60
2018-06-18T10:55:40.764Z,23.50
2018-06-18T10:56:46.197Z,23.40
2018-06-18T10:57:51.626Z,23.40
2018-06-18T10:58:57.060Z,23.50
2018-06-18T11:00:02.969Z,23.60
2018-06-18T11:01:11.578Z,23.60
2018-06-18T11:02:17.006Z,23.80
2018-06-18T11:03:22.432Z,23.90
2018-06-18T11:04:30.196Z,23.80
2018-06-18T11:05:40.906Z,23.80
2018-06-18T11:06:46.425Z,23.80
2018-06-18T11:07:51.857Z,23.80
2018-06-18T11:08:57.365Z,23.70
2018-06-18T11:10:02.770Z,23.60
2018-06-18T11:11:08.216Z,23.40
2018-06-18T11:12:13.625Z,23.50
2018-06-18T11:13:19.092Z,23.40
2018-06-18T11:14:24.559Z,23.40
2018-06-18T11:15:30.105Z,23.30
2018-06-18T11:16:35.731Z,23.30
2018-06-18T11:17:46.337Z,23.10
2018-06-18T11:18:56.997Z,23.20
2018-06-18T11:20:07.536Z,23.10
2018-06-18T11:21:18.198Z,23.00
2018-06-18T11:22:27.686Z,23.10
2018-06-18T11:23:38.210Z,23.20
2018-06-18T11:24:48.841Z,23.20
2018-06-18T11:25:59.402Z,23.20
2018-06-18T11:27:04.989Z,23.20
2018-06-18T11:28:10.494Z,23.10
2018-06-18T11:29:15.931Z,23.00
2018-06-18T11:30:21.343Z,23.00
2018-06-18T11:31:26.896Z,22.90
2018-06-18T11:32:32.357Z,23.00
2018-06-18T11:33:37.990Z,23.10
2018-06-18T11:34:43.492Z,23.10
2018-06-18T11:35:49.174Z,23.10
2018-06-18T11:36:54.599Z,23.10
2018-06-18T11:38:00.067Z,23.00
2018-06-18T11:39:08.978Z,22.80
2018-06-18T11:40:14.439Z,22.50
2018-06-18T11:41:20.017Z,22.50
2018-06-18T11:42:25.481Z,22.30
2018-06-18T11:43:30.964Z,22.20
2018-06-18T11:44:36.446Z,22.00
2018-06-18T11:45:41.982Z,22.00
2018-06-18T11:46:47.389Z,22.20
2018-06-18T11:48:08.598Z,22.40
2018-06-18T11:50:19.200Z,22.90
2018-06-18T11:51:24.626Z,23.20
2018-06-18T11:52:30.044Z,23.30
2018-06-18T11:54:40.494Z,23.70
2018-06-18T11:55:45.992Z,23.60
2018-06-18T11:56:51.505Z,23.60
2018-06-18T11:57:57.118Z,23.60
2018-06-18T11:59:07.817Z,23.50
2018-06-18T12:00:18.752Z,23.40
2018-06-18T12:01:29.419Z,23.30
2018-06-18T12:02:40.567Z,23.00
2018-06-18T12:03:51.109Z,23.00
2018-06-18T12:05:01.783Z,22.90
2018-06-18T12:06:12.577Z,22.80
2018-06-18T12:07:23.116Z,22.70
2018-06-18T12:08:34.389Z,22.70
2018-06-18T12:09:42.294Z,22.70
2018-06-18T12:10:48.638Z,22.80
2018-06-18T12:11:54.058Z,22.80
2018-06-18T12:12:59.468Z,22.60
2018-06-18T12:14:05.078Z,22.50
2018-06-18T12:15:10.485Z,22.40
2018-06-18T12:16:15.995Z,22.30
2018-06-18T12:17:21.410Z,22.20
2018-06-18T12:18:26.822Z,22.00
2018-06-18T12:19:32.686Z,21.90
2018-06-18T12:20:38.075Z,21.80
2018-06-18T12:21:43.502Z,21.60
2018-06-18T12:22:48.914Z,21.50
2018-06-18T12:23:54.324Z,21.50
2018-06-18T12:24:59.869Z,21.50
2018-06-18T12:26:05.335Z,21.40
2018-06-18T12:27:14.134Z,21.40
2018-06-18T12:28:19.548Z,21.40
2018-06-18T12:29:25.081Z,21.60
2018-06-18T12:30:30.510Z,21.60
2018-06-18T12:31:36.062Z,21.70
2018-06-18T12:32:41.794Z,22.00
2018-06-18T12:33:47.361Z,22.00
2018-06-18T12:34:52.797Z,22.00
2018-06-18T12:35:58.422Z,21.90
2018-06-18T12:37:03.865Z,21.90
2018-06-18T12:38:09.558Z,21.90
2018-06-18T12:39:15.007Z,22.00
2018-06-18T12:40:20.465Z,22.20
2018-06-18T12:41:25.957Z,22.40
2018-06-18T12:42:31.506Z,22.50
2018-06-18T12:43:40.483Z,22.80
2018-06-18T12:44:51.384Z,23.00
2018-06-18T12:46:01.958Z,23.30
2018-06-18T12:47:12.901Z,23.50
2018-06-18T12:48:23.519Z,23.50
2018-06-18T12:49:33.936Z,23.40
2018-06-18T12:50:44.575Z,23.40
2018-06-18T12:51:55.026Z,23.50
2018-06-18T12:53:05.517Z,23.40
2018-06-18T12:54:16.226Z,23.30
2018-06-18T12:55:26.966Z,23.20
2018-06-18T12:56:37.615Z,23.20
2018-06-18T12:57:43.037Z,23.20
2018-06-18T12:58:48.534Z,23.20
2018-06-18T13:00:59.064Z,23.10
2018-06-18T13:02:11.507Z,23.10
2018-06-18T13:03:17.886Z,23.00
2018-06-18T13:04:23.889Z,23.00
2018-06-18T13:05:29.333Z,22.90
2018-06-18T13:06:34.733Z,22.70
2018-06-18T13:07:40.137Z,22.60
2018-06-18T13:08:45.662Z,22.40
2018-06-18T13:09:51.052Z,22.20
2018-06-18T13:10:56.473Z,22.10
2018-06-18T13:12:01.939Z,22.10
2018-06-18T13:13:07.330Z,22.00
2018-06-18T13:14:12.960Z,21.90
2018-06-18T13:15:18.582Z,21.80
2018-06-18T13:16:24.061Z,21.80
2018-06-18T13:17:29.458Z,21.90
2018-06-18T13:18:34.871Z,22.00
2018-06-18T13:19:40.282Z,22.10
2018-06-18T13:20:45.695Z,22.20
2018-06-18T13:21:51.093Z,22.40
2018-06-18T13:22:57.170Z,22.60
2018-06-18T13:24:02.639Z,22.70
2018-06-18T13:25:08.174Z,22.90
2018-06-18T13:26:13.578Z,23.00
2018-06-18T13:27:19.031Z,23.00
2018-06-18T13:28:24.466Z,23.00
2018-06-18T13:29:29.868Z,23.10
2018-06-18T13:30:35.278Z,23.10
2018-06-18T13:31:40.705Z,23.00
2018-06-18T13:32:46.101Z,23.20
2018-06-18T13:33:51.561Z,23.10
2018-06-18T13:34:56.946Z,23.20
2018-06-18T13:36:02.466Z,23.10
2018-06-18T13:37:13.126Z,23.10
2018-06-18T13:38:23.888Z,23.00
2018-06-18T13:39:34.586Z,23.10
2018-06-18T13:40:45.230Z,23.10
2018-06-18T13:41:55.861Z,23.00
2018-06-18T13:43:06.405Z,22.90
2018-06-18T13:44:17.002Z,22.90
2018-06-18T13:45:27.585Z,23.00
2018-06-18T13:47:48.800Z,23.20
2018-06-18T13:48:57.833Z,23.30
2018-06-18T13:50:03.740Z,23.40
2018-06-18T13:51:09.319Z,23.50
2018-06-18T13:52:14.721Z,23.60
2018-06-18T13:53:20.144Z,23.60
2018-06-18T13:54:25.546Z,23.60
2018-06-18T13:56:36.179Z,23.40
2018-06-18T13:57:41.614Z,23.50
2018-06-18T13:58:47.097Z,23.50
2018-06-18T13:59:52.836Z,23.50
2018-06-18T14:02:03.287Z,23.70
2018-06-18T14:03:08.704Z,23.80
2018-06-18T14:04:14.186Z,23.80
2018-06-18T14:05:19.632Z,23.80
2018-06-18T14:06:25.138Z,23.80
2018-06-18T14:07:30.553Z,23.60
2018-06-18T14:08:35.979Z,23.50
2018-06-18T14:09:41.382Z,23.40
2018-06-18T14:10:47.095Z,23.40
2018-06-18T14:11:52.552Z,23.30
2018-06-18T14:12:57.961Z,23.40
2018-06-18T14:14:03.566Z,23.50
2018-06-18T14:15:08.897Z,23.50
2018-06-18T14:16:14.391Z,23.50
2018-06-18T14:17:19.781Z,23.50
2018-06-18T14:18:25.190Z,23.40
2018-06-18T14:19:35.733Z,23.40
2018-06-18T14:20:41.109Z,23.30
2018-06-18T14:21:46.658Z,23.20
2018-06-18T14:22:52.865Z,23.10
2018-06-18T14:23:58.278Z,23.00
2018-06-18T14:25:03.788Z,23.00
2018-06-18T14:26:09.171Z,23.00
2018-06-18T14:27:14.805Z,23.00
2018-06-18T14:28:20.283Z,23.00
2018-06-18T14:29:30.896Z,22.90
2018-06-18T14:30:41.609Z,22.80
2018-06-18T14:31:52.158Z,22.80
2018-06-18T14:33:02.882Z,22.80
2018-06-18T14:34:13.582Z,22.70
2018-06-18T14:35:24.052Z,22.80
2018-06-18T14:36:34.680Z,22.90
2018-06-18T14:37:45.226Z,22.90
2018-06-18T14:38:56.081Z,22.80
2018-06-18T14:40:10.925Z,22.80
2018-06-18T14:41:16.450Z,22.80
2018-06-18T14:42:21.948Z,22.60
2018-06-18T14:43:27.822Z,22.50
2018-06-18T14:44:33.262Z,22.40
2018-06-18T14:45:38.754Z,22.30
2018-06-18T14:46:44.157Z,22.10
2018-06-18T14:47:49.666Z,22.00
2018-06-18T14:48:55.100Z,21.80
2018-06-18T14:50:00.533Z,21.60
2018-06-18T14:51:05.948Z,21.50